Impacts TAF Board
For situational awareness. Not to be used for flight planning purposes.
IDs:

KMDW - Chicago/Midway Intl, IL, US

Issued at 1833 UTC 12 Dec 2018
Updated at 1905 UTC 12 Dec 2018
Potential Impact None Slight Moderate High
Time<<13/20Z 13/21Z 13/22Z 13/23Z 14/00Z 14/01Z 14/02Z 14/03Z 14/04Z 14/05Z 14/06Z 14/07Z 14/08Z
Type PRVL PRVL PRVL PRVL
VIS >6 >6 >6 >6
CIG 250 250 16 16
Cover BKN BKN BKN BKN
FltCat VFR VFR MVFR MVFR
WX -- -- -- --
WDir 160 160 140 140
WSpd 5 5 8 8
WGst -- -- -- --
Raw TAF
KMDW 121833Z 1219/1324 24015G23KT P6SM FEW020 BKN060
  FM122000 24013G21KT P6SM BKN025
  FM122300 25010KT P6SM BKN025
  FM130300 24006KT P6SM SCT040
  FM131500 16005KT P6SM BKN250
  FM132200 14008KT P6SM BKN016


METAR Board
Radar Display
Forecast Discussion
For situational awareness. Not to be used for flight planning purposes.